Time;durP1;ratioP1;P1;durP2;ratioP2;P2;SDS_P1;SDS_P2;PMS_P1;PMS_P2;Temp;Humidity;BMP_temperature;BMP_pressure;BME280_temperature;BME280_humidity;BME280_pressure;Samples;Min_cycle;Max_cycle;Signal;HPM_P1;HPM_P2
2022/12/23 00:00:11;;;;;;;42.17;14.63;;;;;;;;;;5063263;28;20021;-78
2022/12/23 00:02:37;;;;;;;93.70;18.48;;;;;;;;;;5070192;28;20387;-78
2022/12/23 00:05:03;;;;;;;72.05;18.77;;;;;;;;;;5069713;28;20093;-78
2022/12/23 00:07:29;;;;;;;75.18;19.48;;;;;;;;;;5069231;28;20037;-80
2022/12/23 00:09:55;;;;;;;63.17;14.75;;;;;;;;;;5060066;28;20052;-77
2022/12/23 00:15:07;;;;;;;69.53;16.70;;;;;;;;;;5062736;28;20052;-80
2022/12/23 00:17:37;;;;;;;46.88;16.60;;;;;;;;;;5059615;28;20033;-80
2022/12/23 00:20:04;;;;;;;90.95;18.88;;;;;;;;;;5059884;28;20128;-79
2022/12/23 00:25:14;;;;;;;72.10;23.92;;;;;;;;;;5065305;28;20551;-79
2022/12/23 00:27:40;;;;;;;64.38;20.08;;;;;;;;;;5066276;28;20029;-79
2022/12/23 00:30:07;;;;;;;84.90;22.60;;;;;;;;;;5080791;28;20035;-79
2022/12/23 00:32:34;;;;;;;81.32;19.38;;;;;;;;;;5066858;28;20471;-79
2022/12/23 00:35:00;;;;;;;50.80;18.67;;;;;;;;;;5061981;28;20025;-79
2022/12/23 00:37:26;;;;;;;39.22;18.10;;;;;;;;;;5055460;28;20025;-79
2022/12/23 00:42:54;;;;;;;39.03;14.70;;;;;;;;;;5066367;28;20036;-79
2022/12/23 00:45:21;;;;;;;25.58;11.73;;;;;;;;;;5059110;28;20102;-79
2022/12/23 00:50:34;;;;;;;25.33;11.40;;;;;;;;;;5054500;28;20059;-79
2022/12/23 00:53:00;;;;;;;19.42;9.73;;;;;;;;;;5058822;28;20033;-80
2022/12/23 00:55:26;;;;;;;23.90;9.55;;;;;;;;;;5066772;28;20025;-78
2022/12/23 00:57:53;;;;;;;15.95;8.68;;;;;;;;;;5056524;28;20167;-78
2022/12/23 01:00:19;;;;;;;13.45;8.88;;;;;;;;;;5062125;28;20032;-77
2022/12/23 01:05:36;;;;;;;17.35;8.60;;;;;;;;;;5050180;28;20079;-78
2022/12/23 01:08:06;;;;;;;33.97;11.55;;;;;;;;;;5064046;28;20506;-80
2022/12/23 01:10:34;;;;;;;43.35;11.52;;;;;;;;;;5066104;28;20029;-77
2022/12/23 01:13:00;;;;;;;33.55;11.63;;;;;;;;;;5059969;28;20021;-79
2022/12/23 01:15:26;;;;;;;66.07;13.50;;;;;;;;;;5062372;28;20406;-79
2022/12/23 01:17:52;;;;;;;50.55;13.48;;;;;;;;;;5063730;28;20409;-79
2022/12/23 01:20:19;;;;;;;52.58;13.25;;;;;;;;;;5049017;28;20028;-79
2022/12/23 01:22:45;;;;;;;36.80;11.63;;;;;;;;;;5065766;28;20025;-78
2022/12/23 01:25:12;;;;;;;43.28;11.48;;;;;;;;;;5055357;28;20392;-79
2022/12/23 01:27:38;;;;;;;64.32;10.05;;;;;;;;;;5058248;28;20036;-80
2022/12/23 01:30:05;;;;;;;75.88;12.82;;;;;;;;;;5056082;28;20025;-81
2022/12/23 01:32:31;;;;;;;49.35;9.88;;;;;;;;;;5060327;28;20056;-79
2022/12/23 01:34:57;;;;;;;40.00;11.38;;;;;;;;;;5058043;28;20033;-78
2022/12/23 01:37:23;;;;;;;53.92;12.02;;;;;;;;;;5060771;28;20028;-79
2022/12/23 01:39:49;;;;;;;52.20;11.18;;;;;;;;;;5077035;28;20046;-78
2022/12/23 01:45:20;;;;;;;40.70;12.30;;;;;;;;;;5067941;28;20525;-78
2022/12/23 01:47:52;;;;;;;24.98;10.25;;;;;;;;;;5047385;28;20033;-78
2022/12/23 01:50:27;;;;;;;34.53;9.38;;;;;;;;;;5057356;28;20026;-80
2022/12/23 01:52:56;;;;;;;22.05;9.73;;;;;;;;;;5058171;28;20391;-79
2022/12/23 01:55:24;;;;;;;45.45;11.48;;;;;;;;;;5061727;28;20028;-79
2022/12/23 01:57:51;;;;;;;46.10;11.55;;;;;;;;;;5070793;28;20522;-80
2022/12/23 02:05:47;;;;;;;69.00;13.57;;;;;;;;;;5058538;28;20072;-80
2022/12/23 02:11:19;;;;;;;67.28;13.27;;;;;;;;;;5058863;28;20036;-79
2022/12/23 02:16:45;;;;;;;59.72;13.40;;;;;;;;;;5062853;28;20262;-78
2022/12/23 02:19:21;;;;;;;90.47;17.05;;;;;;;;;;5049322;28;20099;-79
2022/12/23 02:22:03;;;;;;;92.93;16.67;;;;;;;;;;5061291;28;20022;-79
2022/12/23 02:24:48;;;;;;;118.35;19.98;;;;;;;;;;5058088;28;20457;-79
2022/12/23 02:27:16;;;;;;;135.48;20.65;;;;;;;;;;5057301;28;20037;-80
2022/12/23 02:29:48;;;;;;;121.63;21.08;;;;;;;;;;5055959;28;20044;-79
2022/12/23 02:32:20;;;;;;;107.28;19.30;;;;;;;;;;5070542;28;20184;-79
2022/12/23 02:34:53;;;;;;;105.18;18.10;;;;;;;;;;5063134;28;20064;-78
2022/12/23 02:37:34;;;;;;;101.03;18.33;;;;;;;;;;5048883;28;20040;-80
2022/12/23 02:40:06;;;;;;;81.55;18.48;;;;;;;;;;5046521;28;20071;-80
2022/12/23 02:42:43;;;;;;;79.65;16.52;;;;;;;;;;5054902;28;20025;-79
2022/12/23 02:45:32;;;;;;;217.02;24.23;;;;;;;;;;5053280;28;20044;-80
2022/12/23 02:48:05;;;;;;;102.90;19.83;;;;;;;;;;5049531;28;20060;-80
2022/12/23 02:50:33;;;;;;;105.68;16.48;;;;;;;;;;5059981;28;20021;-78
2022/12/23 02:53:03;;;;;;;115.88;18.63;;;;;;;;;;5056290;28;20541;-79
2022/12/23 02:55:32;;;;;;;166.60;25.02;;;;;;;;;;5052287;28;20104;-79
2022/12/23 02:58:00;;;;;;;179.55;24.42;;;;;;;;;;5056991;28;20291;-79
2022/12/23 03:00:27;;;;;;;106.28;19.50;;;;;;;;;;5058728;28;20053;-80
2022/12/23 03:02:53;;;;;;;160.63;22.88;;;;;;;;;;5063415;28;20037;-80
2022/12/23 03:05:42;;;;;;;211.93;25.95;;;;;;;;;;5053269;28;20039;-82
2022/12/23 03:08:14;;;;;;;153.52;22.80;;;;;;;;;;5039959;28;20492;-80
2022/12/23 03:11:09;;;;;;;178.38;26.23;;;;;;;;;;5057088;28;20032;-78
2022/12/23 03:14:00;;;;;;;109.55;22.48;;;;;;;;;;5046642;28;20526;-81
2022/12/23 03:16:32;;;;;;;133.05;22.55;;;;;;;;;;5052508;28;20045;-79
2022/12/23 03:19:05;;;;;;;136.10;25.80;;;;;;;;;;5048483;28;20025;-81
2022/12/23 03:21:51;;;;;;;216.13;30.23;;;;;;;;;;5057945;28;20029;-80
2022/12/23 03:24:17;;;;;;;130.93;23.33;;;;;;;;;;5058329;28;20044;-79
2022/12/23 03:26:57;;;;;;;133.63;23.25;;;;;;;;;;5060852;28;20041;-80
2022/12/23 03:29:23;;;;;;;147.07;24.08;;;;;;;;;;5051664;28;20030;-79
2022/12/23 03:31:49;;;;;;;138.52;22.27;;;;;;;;;;5071053;28;20017;-81
2022/12/23 03:34:17;;;;;;;167.70;27.50;;;;;;;;;;5067286;28;20033;-79
2022/12/23 03:36:54;;;;;;;81.20;20.52;;;;;;;;;;5059512;28;20080;-79
2022/12/23 03:39:21;;;;;;;120.32;20.60;;;;;;;;;;5078335;28;20052;-80
2022/12/23 03:41:49;;;;;;;156.38;25.85;;;;;;;;;;5056849;28;20025;-78
2022/12/23 03:44:17;;;;;;;118.95;20.73;;;;;;;;;;5070023;28;20029;-79
2022/12/23 03:46:54;;;;;;;72.85;21.83;;;;;;;;;;5080121;28;20430;-80
2022/12/23 03:49:26;;;;;;;112.03;20.60;;;;;;;;;;5063392;28;20029;-81
2022/12/23 03:52:19;;;;;;;112.93;19.48;;;;;;;;;;5055655;28;20077;-79
2022/12/23 03:54:56;;;;;;;75.65;17.23;;;;;;;;;;5051616;28;20041;-79
2022/12/23 03:57:25;;;;;;;90.22;18.70;;;;;;;;;;5070445;28;20057;-80
2022/12/23 03:59:52;;;;;;;66.07;17.05;;;;;;;;;;5060172;28;20183;-80
2022/12/23 04:02:22;;;;;;;62.15;16.00;;;;;;;;;;5077888;28;20029;-79
2022/12/23 04:04:57;;;;;;;36.53;15.05;;;;;;;;;;5061908;28;20031;-79
2022/12/23 04:07:27;;;;;;;21.92;10.93;;;;;;;;;;5059877;28;20518;-78
2022/12/23 04:09:53;;;;;;;27.58;11.68;;;;;;;;;;5052100;28;20032;-79
2022/12/23 04:12:22;;;;;;;24.75;11.80;;;;;;;;;;5059277;28;20077;-79
2022/12/23 04:14:49;;;;;;;26.27;12.65;;;;;;;;;;5072833;28;20013;-79
2022/12/23 04:17:16;;;;;;;26.90;11.25;;;;;;;;;;5060175;28;20028;-79
2022/12/23 04:19:44;;;;;;;20.27;9.48;;;;;;;;;;5054598;28;20029;-79
2022/12/23 04:22:10;;;;;;;22.27;9.95;;;;;;;;;;5055998;28;20013;-78
2022/12/23 04:24:36;;;;;;;18.38;9.23;;;;;;;;;;5056212;28;20013;-77
2022/12/23 04:27:02;;;;;;;19.17;9.68;;;;;;;;;;5060978;28;20052;-79
2022/12/23 04:29:28;;;;;;;17.65;8.95;;;;;;;;;;5066977;28;20025;-78
2022/12/23 04:31:54;;;;;;;23.55;9.48;;;;;;;;;;5068046;28;20044;-78
2022/12/23 04:34:20;;;;;;;15.13;8.15;;;;;;;;;;5056513;28;20025;-78
2022/12/23 04:36:47;;;;;;;16.17;9.02;;;;;;;;;;5060500;28;20029;-78
2022/12/23 04:39:13;;;;;;;14.25;8.63;;;;;;;;;;5066293;28;20025;-78
2022/12/23 04:41:39;;;;;;;15.05;7.63;;;;;;;;;;5057882;28;20039;-78
2022/12/23 04:44:05;;;;;;;15.18;8.27;;;;;;;;;;5067615;28;20029;-80
2022/12/23 04:46:31;;;;;;;14.95;7.82;;;;;;;;;;5068655;28;20048;-80
2022/12/23 04:48:57;;;;;;;15.23;7.13;;;;;;;;;;5067345;28;20044;-79
2022/12/23 04:51:23;;;;;;;14.95;9.18;;;;;;;;;;5059033;28;20124;-78
2022/12/23 04:53:49;;;;;;;14.45;7.13;;;;;;;;;;5068031;28;20032;-79
2022/12/23 04:56:15;;;;;;;11.32;6.57;;;;;;;;;;5068605;28;20028;-79
2022/12/23 04:58:41;;;;;;;18.05;7.70;;;;;;;;;;5066062;28;20029;-80
2022/12/23 05:01:11;;;;;;;16.88;8.25;;;;;;;;;;5065863;28;20112;-78
2022/12/23 05:03:38;;;;;;;14.13;7.18;;;;;;;;;;5058389;28;20112;-80
2022/12/23 05:06:04;;;;;;;12.95;6.68;;;;;;;;;;5065333;28;20467;-79
2022/12/23 05:08:31;;;;;;;10.50;7.00;;;;;;;;;;5065930;28;20040;-79
2022/12/23 05:10:57;;;;;;;14.52;5.57;;;;;;;;;;5061278;28;20498;-78
2022/12/23 05:13:23;;;;;;;8.27;5.60;;;;;;;;;;5064905;28;20075;-81
2022/12/23 05:15:50;;;;;;;10.65;4.60;;;;;;;;;;5061236;28;20021;-79
2022/12/23 05:18:16;;;;;;;10.48;5.43;;;;;;;;;;5061285;28;20085;-78
2022/12/23 05:20:43;;;;;;;11.35;4.95;;;;;;;;;;5059260;28;20029;-79
2022/12/23 05:23:09;;;;;;;7.57;4.03;;;;;;;;;;5047572;28;20021;-81
2022/12/23 05:25:36;;;;;;;8.27;4.10;;;;;;;;;;5058065;28;20048;-82
2022/12/23 05:28:02;;;;;;;4.85;3.70;;;;;;;;;;5052157;28;20581;-79
2022/12/23 05:30:28;;;;;;;5.18;3.42;;;;;;;;;;5055391;28;20347;-79
2022/12/23 05:32:55;;;;;;;7.35;3.25;;;;;;;;;;5058847;28;20033;-79
2022/12/23 05:35:21;;;;;;;5.72;3.58;;;;;;;;;;5057339;28;20029;-82
2022/12/23 05:37:47;;;;;;;7.65;3.70;;;;;;;;;;5054608;28;20033;-79
2022/12/23 05:40:14;;;;;;;8.65;4.47;;;;;;;;;;5056864;28;20400;-79
2022/12/23 05:42:40;;;;;;;6.07;3.63;;;;;;;;;;5054332;28;20024;-81
2022/12/23 05:45:06;;;;;;;5.35;3.33;;;;;;;;;;5048558;28;20374;-79
2022/12/23 05:47:32;;;;;;;4.88;3.17;;;;;;;;;;5051351;28;20077;-79
2022/12/23 05:49:58;;;;;;;9.98;3.90;;;;;;;;;;5053779;28;20040;-78
2022/12/23 05:52:25;;;;;;;4.53;3.10;;;;;;;;;;5057485;28;20082;-79
2022/12/23 05:54:51;;;;;;;5.45;3.47;;;;;;;;;;5043702;28;20028;-79
2022/12/23 05:57:17;;;;;;;5.60;3.10;;;;;;;;;;5046954;28;20025;-80
2022/12/23 05:59:44;;;;;;;5.90;3.92;;;;;;;;;;5062590;28;20032;-78
2022/12/23 06:02:10;;;;;;;4.75;3.25;;;;;;;;;;5055221;28;20021;-78
2022/12/23 06:04:36;;;;;;;4.60;3.75;;;;;;;;;;5044699;28;20029;-78
2022/12/23 06:07:02;;;;;;;4.45;2.75;;;;;;;;;;5054731;28;20570;-78
2022/12/23 06:09:28;;;;;;;4.53;1.90;;;;;;;;;;5055883;28;20391;-77
2022/12/23 06:11:54;;;;;;;2.42;1.80;;;;;;;;;;5055758;28;20067;-78
2022/12/23 06:14:20;;;;;;;5.65;2.15;;;;;;;;;;5056855;28;20032;-79
2022/12/23 06:16:46;;;;;;;4.55;3.95;;;;;;;;;;5055712;28;20155;-78
2022/12/23 06:19:12;;;;;;;5.30;2.35;;;;;;;;;;5055577;28;20044;-77
2022/12/23 06:21:40;;;;;;;4.95;2.10;;;;;;;;;;5060510;28;20037;-78
2022/12/23 06:24:06;;;;;;;3.50;2.22;;;;;;;;;;5063989;28;20085;-79
2022/12/23 06:26:34;;;;;;;5.05;2.08;;;;;;;;;;5059726;28;20399;-78
2022/12/23 06:29:01;;;;;;;3.20;1.95;;;;;;;;;;5054834;28;20396;-79
2022/12/23 06:31:27;;;;;;;2.78;1.98;;;;;;;;;;5052119;28;20028;-80
2022/12/23 06:33:53;;;;;;;4.85;2.38;;;;;;;;;;5051167;28;20036;-78
2022/12/23 06:36:19;;;;;;;4.45;2.50;;;;;;;;;;5051171;28;20114;-77
2022/12/23 06:38:45;;;;;;;6.07;2.40;;;;;;;;;;5055177;28;20056;-77
2022/12/23 06:41:12;;;;;;;3.00;2.20;;;;;;;;;;5057719;28;20079;-79
2022/12/23 06:43:38;;;;;;;2.33;2.10;;;;;;;;;;5057544;28;20045;-79
2022/12/23 06:46:04;;;;;;;4.47;2.80;;;;;;;;;;5054902;28;20025;-79
2022/12/23 06:48:30;;;;;;;7.15;2.63;;;;;;;;;;5057313;28;20491;-78
2022/12/23 06:50:56;;;;;;;4.90;2.60;;;;;;;;;;5066277;28;20036;-79
2022/12/23 06:53:22;;;;;;;5.63;2.90;;;;;;;;;;5055302;28;20029;-78
2022/12/23 06:55:48;;;;;;;2.97;2.63;;;;;;;;;;5059991;28;20029;-79
2022/12/23 06:58:14;;;;;;;5.18;2.38;;;;;;;;;;5053395;28;20027;-78
2022/12/23 07:00:40;;;;;;;9.18;2.25;;;;;;;;;;5061023;28;20025;-78
2022/12/23 07:03:06;;;;;;;3.20;2.03;;;;;;;;;;5058114;28;20518;-79
2022/12/23 07:05:34;;;;;;;4.60;2.20;;;;;;;;;;5054600;28;20507;-78
2022/12/23 07:08:00;;;;;;;1.73;1.60;;;;;;;;;;5052635;28;20025;-79
2022/12/23 07:10:26;;;;;;;4.43;1.73;;;;;;;;;;5054790;28;20092;-81
2022/12/23 07:12:52;;;;;;;3.20;1.85;;;;;;;;;;5059068;28;20085;-79
2022/12/23 07:15:18;;;;;;;4.00;2.17;;;;;;;;;;5051016;28;20029;-79
2022/12/23 07:17:44;;;;;;;6.72;2.15;;;;;;;;;;5056160;28;20082;-77
2022/12/23 07:20:12;;;;;;;4.35;1.80;;;;;;;;;;5057646;28;20037;-80
2022/12/23 07:22:38;;;;;;;8.40;2.15;;;;;;;;;;5056431;28;20025;-78
2022/12/23 07:25:04;;;;;;;6.43;1.83;;;;;;;;;;5042290;28;20021;-76
2022/12/23 07:27:30;;;;;;;3.88;1.55;;;;;;;;;;5041498;28;20039;-77
2022/12/23 07:29:56;;;;;;;5.47;3.45;;;;;;;;;;5040269;28;20116;-77
2022/12/23 07:32:22;;;;;;;2.63;1.60;;;;;;;;;;5042207;28;20430;-77
2022/12/23 07:34:48;;;;;;;2.65;1.30;;;;;;;;;;5039405;28;20025;-78
2022/12/23 07:37:14;;;;;;;6.32;1.90;;;;;;;;;;5040596;28;20025;-76
2022/12/23 07:39:40;;;;;;;4.38;1.65;;;;;;;;;;5041830;28;20036;-77
2022/12/23 07:42:06;;;;;;;2.45;1.70;;;;;;;;;;5041851;28;20525;-76
2022/12/23 07:44:32;;;;;;;7.05;2.00;;;;;;;;;;5043274;28;20498;-77
2022/12/23 07:47:00;;;;;;;2.95;2.05;;;;;;;;;;5041798;28;20025;-76
2022/12/23 07:49:26;;;;;;;3.75;2.08;;;;;;;;;;5043490;28;20937;-76
2022/12/23 07:51:52;;;;;;;1.65;1.55;;;;;;;;;;5044555;28;20483;-76
2022/12/23 07:54:18;;;;;;;3.35;1.95;;;;;;;;;;5039368;28;20032;-77
2022/12/23 07:56:44;;;;;;;3.33;2.10;;;;;;;;;;5038999;28;20387;-76
2022/12/23 07:59:10;;;;;;;3.60;2.42;;;;;;;;;;5041629;28;21206;-76
2022/12/23 08:01:36;;;;;;;6.50;2.38;;;;;;;;;;5041226;28;20025;-76
2022/12/23 08:04:02;;;;;;;5.68;1.95;;;;;;;;;;5039199;28;20055;-76
2022/12/23 08:06:28;;;;;;;2.15;1.85;;;;;;;;;;5040073;28;20021;-77
2022/12/23 08:08:54;;;;;;;6.07;1.75;;;;;;;;;;5037732;28;20025;-78
2022/12/23 08:11:20;;;;;;;2.67;2.20;;;;;;;;;;5041648;28;20395;-77
2022/12/23 08:13:48;;;;;;;5.32;2.05;;;;;;;;;;5040824;28;20022;-76
2022/12/23 08:16:14;;;;;;;4.75;2.05;;;;;;;;;;5042531;28;20088;-77
2022/12/23 08:18:40;;;;;;;3.80;2.03;;;;;;;;;;5039007;28;20021;-77
2022/12/23 08:21:09;;;;;;;2.72;2.17;;;;;;;;;;5042846;28;20078;-77
2022/12/23 08:23:35;;;;;;;6.10;2.10;;;;;;;;;;5041292;28;20037;-77
2022/12/23 08:26:06;;;;;;;6.90;3.08;;;;;;;;;;5039163;28;20067;-75
2022/12/23 08:28:32;;;;;;;6.05;3.28;;;;;;;;;;5042495;28;20090;-78
2022/12/23 08:31:12;;;;;;;2.40;1.80;;;;;;;;;;5042132;28;20044;-77
2022/12/23 08:33:39;;;;;;;4.35;2.80;;;;;;;;;;5036482;28;20163;-76
2022/12/23 08:36:07;;;;;;;6.57;2.17;;;;;;;;;;5039871;28;20120;-77
2022/12/23 08:38:34;;;;;;;3.88;1.90;;;;;;;;;;5037875;28;20037;-77
2022/12/23 08:41:00;;;;;;;2.78;2.15;;;;;;;;;;5039629;28;20048;-76
2022/12/23 08:43:26;;;;;;;3.97;2.03;;;;;;;;;;5042111;28;20036;-76
2022/12/23 08:45:52;;;;;;;2.58;1.80;;;;;;;;;;5041073;28;20075;-76
2022/12/23 08:48:18;;;;;;;4.72;2.22;;;;;;;;;;5039294;28;20033;-77
2022/12/23 08:50:45;;;;;;;2.85;2.05;;;;;;;;;;5040841;28;20052;-78
2022/12/23 08:53:12;;;;;;;4.93;2.05;;;;;;;;;;5041864;28;20064;-77
2022/12/23 08:55:42;;;;;;;5.13;1.95;;;;;;;;;;5049715;28;20056;-77
2022/12/23 08:58:08;;;;;;;4.30;2.45;;;;;;;;;;5055736;28;20029;-76
2022/12/23 09:00:35;;;;;;;3.42;2.50;;;;;;;;;;5060004;28;20029;-76
2022/12/23 09:03:01;;;;;;;4.18;2.00;;;;;;;;;;5054694;28;20020;-77
2022/12/23 09:05:27;;;;;;;6.20;2.05;;;;;;;;;;5054353;28;21008;-78
2022/12/23 09:07:53;;;;;;;15.13;4.18;;;;;;;;;;5048407;28;20033;-77
2022/12/23 09:10:20;;;;;;;4.63;2.53;;;;;;;;;;5051576;28;20011;-78
2022/12/23 09:12:46;;;;;;;5.30;2.47;;;;;;;;;;5046676;28;20428;-76
2022/12/23 09:15:12;;;;;;;4.22;2.30;;;;;;;;;;5049384;28;20503;-77
2022/12/23 09:17:38;;;;;;;7.82;2.78;;;;;;;;;;5046643;28;20047;-77
2022/12/23 09:20:05;;;;;;;6.70;2.00;;;;;;;;;;5049412;28;20062;-77
2022/12/23 09:22:34;;;;;;;3.15;2.83;;;;;;;;;;5045846;28;20021;-77
2022/12/23 09:25:00;;;;;;;5.45;2.30;;;;;;;;;;5050166;28;20021;-77
2022/12/23 09:27:26;;;;;;;4.38;2.13;;;;;;;;;;5046947;28;20029;-79
2022/12/23 09:29:52;;;;;;;7.10;1.92;;;;;;;;;;5047720;28;20511;-80
2022/12/23 09:32:18;;;;;;;4.68;2.10;;;;;;;;;;5046881;28;20401;-76
2022/12/23 09:34:45;;;;;;;8.27;2.60;;;;;;;;;;5043740;28;20037;-77
2022/12/23 09:37:15;;;;;;;4.38;2.20;;;;;;;;;;5046704;28;20036;-76
2022/12/23 09:39:41;;;;;;;5.18;2.40;;;;;;;;;;5052273;28;20044;-77
2022/12/23 09:42:07;;;;;;;4.25;2.20;;;;;;;;;;5051081;28;20021;-77
2022/12/23 09:44:41;;;;;;;3.03;1.95;;;;;;;;;;5052745;28;20070;-78
2022/12/23 09:47:10;;;;;;;5.93;2.10;;;;;;;;;;5046923;28;20021;-77
2022/12/23 09:49:39;;;;;;;2.65;2.05;;;;;;;;;;5046288;28;20039;-79
2022/12/23 09:52:06;;;;;;;3.70;2.00;;;;;;;;;;5062037;28;20124;-77
2022/12/23 09:54:44;;;;;;;4.53;2.00;;;;;;;;;;5043958;28;20033;-78
2022/12/23 09:57:29;;;;;;;4.72;2.08;;;;;;;;;;5046808;28;20031;-78
2022/12/23 09:59:58;;;;;;;4.35;2.20;;;;;;;;;;5048494;28;20128;-80
2022/12/23 10:02:30;;;;;;;5.07;2.35;;;;;;;;;;5047755;28;20398;-80
2022/12/23 10:05:03;;;;;;;4.75;2.10;;;;;;;;;;5047177;28;20021;-76
2022/12/23 10:07:39;;;;;;;4.00;2.03;;;;;;;;;;5046227;28;20078;-78
2022/12/23 10:10:17;;;;;;;5.22;2.72;;;;;;;;;;5046159;28;20097;-76
2022/12/23 10:12:46;;;;;;;3.10;1.95;;;;;;;;;;5048698;28;20025;-77
2022/12/23 10:15:21;;;;;;;5.45;2.20;;;;;;;;;;5051947;28;20017;-77
2022/12/23 10:17:48;;;;;;;3.05;1.63;;;;;;;;;;5048220;28;20025;-77
2022/12/23 10:20:19;;;;;;;3.20;1.90;;;;;;;;;;5047391;28;20112;-77
2022/12/23 10:22:46;;;;;;;3.17;1.90;;;;;;;;;;5048764;28;20025;-79
2022/12/23 10:25:44;;;;;;;4.05;2.20;;;;;;;;;;5045669;28;20104;-78
2022/12/23 10:28:10;;;;;;;4.35;2.38;;;;;;;;;;5018149;28;20039;-78
2022/12/23 10:30:40;;;;;;;4.70;2.47;;;;;;;;;;5046247;28;20083;-78
2022/12/23 10:33:44;;;;;;;2.40;1.70;;;;;;;;;;5045077;28;20107;-78
2022/12/23 10:36:36;;;;;;;3.50;2.00;;;;;;;;;;4993665;28;20048;-78
2022/12/23 10:39:08;;;;;;;2.45;1.90;;;;;;;;;;5009941;28;20037;-79
2022/12/23 10:41:36;;;;;;;6.75;2.38;;;;;;;;;;5034661;28;20404;-78
2022/12/23 10:44:02;;;;;;;4.20;2.20;;;;;;;;;;5044220;28;20033;-79
2022/12/23 10:46:31;;;;;;;3.80;2.35;;;;;;;;;;5047236;28;20029;-77
2022/12/23 10:49:24;;;;;;;5.20;2.28;;;;;;;;;;5050483;28;20025;-79
2022/12/23 10:51:56;;;;;;;2.10;1.88;;;;;;;;;;5053797;28;20020;-77
2022/12/23 10:54:25;;;;;;;3.25;2.05;;;;;;;;;;5053170;28;20087;-78
2022/12/23 10:56:52;;;;;;;3.53;2.03;;;;;;;;;;5048331;28;20018;-77
2022/12/23 10:59:27;;;;;;;3.22;1.95;;;;;;;;;;5053327;28;20025;-78
2022/12/23 11:02:06;;;;;;;3.40;2.15;;;;;;;;;;5048855;28;20037;-78
2022/12/23 11:04:34;;;;;;;3.03;2.08;;;;;;;;;;5053719;28;20032;-78
2022/12/23 11:07:01;;;;;;;5.32;2.80;;;;;;;;;;5056451;28;20044;-76
2022/12/23 11:09:36;;;;;;;6.88;3.20;;;;;;;;;;5055272;28;20419;-79
2022/12/23 11:12:03;;;;;;;5.10;2.53;;;;;;;;;;5052123;28;20082;-77
2022/12/23 11:14:38;;;;;;;3.28;2.38;;;;;;;;;;5057117;28;20035;-79
2022/12/23 11:17:04;;;;;;;;;;;;;;;;;;5059949;28;20029;-77
2022/12/23 11:19:30;;;;;;;8.25;2.78;;;;;;;;;;5073759;28;19928;-78
2022/12/23 11:21:58;;;;;;;3.95;2.15;;;;;;;;;;5055305;28;20044;-78
2022/12/23 11:24:25;;;;;;;3.67;2.83;;;;;;;;;;5056318;28;20029;-77
2022/12/23 11:27:02;;;;;;;4.35;2.50;;;;;;;;;;5056027;28;20072;-77
2022/12/23 11:29:31;;;;;;;3.97;2.70;;;;;;;;;;5057138;28;20036;-77
2022/12/23 11:31:57;;;;;;;5.60;2.80;;;;;;;;;;5059172;28;20036;-77
2022/12/23 11:34:25;;;;;;;3.08;2.70;;;;;;;;;;5060649;28;20091;-77
2022/12/23 11:36:58;;;;;;;5.10;4.35;;;;;;;;;;5061469;28;20039;-77
2022/12/23 11:39:27;;;;;;;4.75;3.28;;;;;;;;;;5056888;28;20064;-79
2022/12/23 11:42:02;;;;;;;3.35;2.28;;;;;;;;;;5055615;28;20049;-77
2022/12/23 11:44:29;;;;;;;;;;;;;;;;;;5053086;28;20029;-76
2022/12/23 11:46:55;;;;;;;3.78;2.55;;;;;;;;;;5058410;28;19920;-77
2022/12/23 11:49:31;;;;;;;4.45;3.17;;;;;;;;;;5055582;28;20025;-78
2022/12/23 11:52:00;;;;;;;4.75;3.40;;;;;;;;;;5057188;28;20340;-79
2022/12/23 11:54:27;;;;;;;3.80;3.20;;;;;;;;;;5060020;28;20030;-78
2022/12/23 11:56:53;;;;;;;4.95;4.13;;;;;;;;;;5057756;28;20045;-79
2022/12/23 11:59:26;;;;;;;4.63;3.60;;;;;;;;;;5062060;28;20048;-79
2022/12/23 12:01:53;;;;;;;5.88;3.90;;;;;;;;;;5061440;28;20029;-78
2022/12/23 12:04:20;;;;;;;4.53;3.88;;;;;;;;;;5057850;28;20100;-78
2022/12/23 12:06:47;;;;;;;6.65;3.55;;;;;;;;;;5060304;28;20041;-77
2022/12/23 12:09:13;;;;;;;7.30;4.38;;;;;;;;;;5059554;28;20040;-76
2022/12/23 12:11:46;;;;;;;4.88;2.47;;;;;;;;;;5062148;28;20039;-75
2022/12/23 12:14:20;;;;;;;5.00;3.90;;;;;;;;;;5054406;28;20383;-75
2022/12/23 12:16:46;;;;;;;4.20;3.35;;;;;;;;;;5065362;28;20104;-76
2022/12/23 12:19:19;;;;;;;3.22;2.50;;;;;;;;;;5064874;28;20028;-76
2022/12/23 12:21:45;;;;;;;2.90;2.33;;;;;;;;;;5064417;28;20029;-78
2022/12/23 12:24:41;;;;;;;3.10;2.08;;;;;;;;;;5064564;28;20086;-76
2022/12/23 12:27:07;;;;;;;2.97;1.98;;;;;;;;;;5048290;28;20155;-78
2022/12/23 12:35:48;;;;;;;11.88;8.93;;;;;;;;;;5062771;28;20028;-76
2022/12/23 12:38:14;;;;;;;3.78;3.03;;;;;;;;;;5062028;28;20420;-78
2022/12/23 12:40:41;;;;;;;5.60;3.72;;;;;;;;;;5058948;28;20025;-77
2022/12/23 12:43:43;;;;;;;5.75;3.83;;;;;;;;;;5059993;28;20075;-77
2022/12/23 12:46:09;;;;;;;4.22;2.55;;;;;;;;;;5056057;28;20032;-78
2022/12/23 12:48:41;;;;;;;5.95;4.13;;;;;;;;;;5066600;28;20056;-77
2022/12/23 12:51:14;;;;;;;4.63;2.88;;;;;;;;;;5056546;28;20444;-77
2022/12/23 12:53:55;;;;;;;6.07;4.47;;;;;;;;;;5058504;28;20056;-76
2022/12/23 12:56:29;;;;;;;2.90;2.20;;;;;;;;;;5059418;28;20111;-76
2022/12/23 12:58:55;;;;;;;4.25;2.55;;;;;;;;;;5057169;28;20041;-76
2022/12/23 13:01:27;;;;;;;14.93;7.90;;;;;;;;;;5066954;28;20028;-77
2022/12/23 13:04:06;;;;;;;12.25;7.78;;;;;;;;;;5062916;28;20045;-77
2022/12/23 13:06:35;;;;;;;17.65;13.85;;;;;;;;;;5063132;28;20025;-75
2022/12/23 13:09:10;;;;;;;9.45;6.50;;;;;;;;;;5061742;28;20032;-77
2022/12/23 13:11:43;;;;;;;9.93;6.97;;;;;;;;;;5066541;28;20053;-76
2022/12/23 13:14:28;;;;;;;4.75;3.85;;;;;;;;;;5059979;28;20030;-75
2022/12/23 13:17:07;;;;;;;10.53;4.90;;;;;;;;;;5057981;28;20032;-78
2022/12/23 13:19:42;;;;;;;7.65;5.13;;;;;;;;;;5050595;28;20032;-79
2022/12/23 13:22:11;;;;;;;9.75;5.18;;;;;;;;;;5073446;28;20029;-80
2022/12/23 13:24:38;;;;;;;6.88;4.53;;;;;;;;;;5064170;28;20025;-77
2022/12/23 13:27:24;;;;;;;14.35;8.07;;;;;;;;;;5064614;28;20037;-78
2022/12/23 13:30:02;;;;;;;14.95;9.65;;;;;;;;;;5075096;28;20055;-76
2022/12/23 13:32:47;;;;;;;13.27;9.60;;;;;;;;;;5062952;28;20056;-79
2022/12/23 13:35:17;;;;;;;8.85;7.43;;;;;;;;;;5064970;28;20033;-77
2022/12/23 13:37:43;;;;;;;5.85;4.85;;;;;;;;;;5057241;28;20029;-75
2022/12/23 13:40:15;;;;;;;8.50;6.65;;;;;;;;;;5064565;28;20032;-76
2022/12/23 13:42:45;;;;;;;9.90;5.85;;;;;;;;;;5066215;28;20592;-75
2022/12/23 13:45:16;;;;;;;12.93;7.43;;;;;;;;;;5065150;28;20114;-76
2022/12/23 13:47:56;;;;;;;13.93;7.60;;;;;;;;;;5065652;28;20029;-77
2022/12/23 13:50:44;;;;;;;10.30;6.60;;;;;;;;;;5055050;28;20028;-80
2022/12/23 13:53:30;;;;;;;10.02;4.93;;;;;;;;;;5059031;28;20013;-77
2022/12/23 13:55:56;;;;;;;13.05;5.68;;;;;;;;;;5056381;28;20029;-79
2022/12/23 13:58:26;;;;;;;11.68;4.90;;;;;;;;;;5062478;28;20067;-78
2022/12/23 14:01:08;;;;;;;11.95;5.07;;;;;;;;;;5062848;28;20471;-78
2022/12/23 14:03:38;;;;;;;10.15;5.78;;;;;;;;;;5055636;28;20096;-78
2022/12/23 14:06:21;;;;;;;31.60;16.65;;;;;;;;;;5063263;28;20025;-76
2022/12/23 14:08:47;;;;;;;20.10;9.07;;;;;;;;;;5064132;28;20032;-79
2022/12/23 14:11:13;;;;;;;21.77;11.70;;;;;;;;;;5059487;28;20048;-75
2022/12/23 14:13:42;;;;;;;36.85;17.45;;;;;;;;;;5067489;28;20458;-79
2022/12/23 14:16:20;;;;;;;25.13;11.80;;;;;;;;;;5054471;28;20089;-77
2022/12/23 14:18:46;;;;;;;22.40;12.98;;;;;;;;;;5059770;28;20025;-78
2022/12/23 14:21:12;;;;;;;26.83;16.50;;;;;;;;;;5058503;28;20066;-77
2022/12/23 14:23:48;;;;;;;26.40;16.70;;;;;;;;;;5054404;28;20468;-78
2022/12/23 14:26:17;;;;;;;44.00;23.08;;;;;;;;;;5054655;28;20041;-79
2022/12/23 14:28:50;;;;;;;53.55;27.52;;;;;;;;;;5051779;28;20073;-77
2022/12/23 14:31:36;;;;;;;33.50;16.30;;;;;;;;;;5039061;28;20032;-77
2022/12/23 14:34:06;;;;;;;38.50;19.35;;;;;;;;;;5034900;28;20036;-77
2022/12/23 14:36:32;;;;;;;78.28;41.97;;;;;;;;;;5039526;28;20075;-76
2022/12/23 14:39:10;;;;;;;38.53;21.55;;;;;;;;;;5037953;28;20554;-77
2022/12/23 14:41:57;;;;;;;43.42;22.30;;;;;;;;;;5037572;28;20056;-77
2022/12/23 14:44:25;;;;;;;40.50;23.23;;;;;;;;;;5040087;28;20116;-76
2022/12/23 14:46:53;;;;;;;29.23;17.35;;;;;;;;;;5037070;28;20025;-77
2022/12/23 14:49:39;;;;;;;51.50;31.67;;;;;;;;;;5037572;28;20045;-77
2022/12/23 14:52:28;;;;;;;30.42;17.95;;;;;;;;;;5040854;28;20274;-78
2022/12/23 14:54:54;;;;;;;24.15;12.73;;;;;;;;;;5033304;28;20049;-78
2022/12/23 14:57:23;;;;;;;25.83;12.93;;;;;;;;;;5039515;28;20090;-77
2022/12/23 14:59:55;;;;;;;19.77;9.25;;;;;;;;;;5039261;28;20277;-77
2022/12/23 15:02:21;;;;;;;23.15;12.88;;;;;;;;;;5044934;28;20021;-80
2022/12/23 15:04:50;;;;;;;22.02;14.43;;;;;;;;;;5041900;28;20091;-77
2022/12/23 15:07:27;;;;;;;21.88;8.63;;;;;;;;;;5038203;28;20034;-77
2022/12/23 15:09:55;;;;;;;23.02;8.43;;;;;;;;;;5039936;28;20040;-76
2022/12/23 15:12:27;;;;;;;20.48;8.80;;;;;;;;;;5040367;28;20462;-75
2022/12/23 15:14:56;;;;;;;19.95;8.32;;;;;;;;;;5043163;28;20067;-76
2022/12/23 15:17:28;;;;;;;25.65;10.27;;;;;;;;;;5039431;28;20048;-77
2022/12/23 15:20:02;;;;;;;14.75;8.00;;;;;;;;;;5039613;28;20036;-76
2022/12/23 15:22:32;;;;;;;20.48;11.32;;;;;;;;;;5039463;28;20024;-76